createdAt,value
2024-01-11T00:00:50.687Z,15.7
2024-01-11T00:02:06.630Z,14.8
2024-01-11T00:03:22.825Z,15.1
2024-01-11T00:04:39.019Z,15.6
2024-01-11T00:05:54.475Z,15.6
2024-01-11T00:07:10.424Z,14.7
2024-01-11T00:08:26.619Z,15.2
2024-01-11T00:09:42.813Z,15.3
2024-01-11T00:10:59.254Z,15.1
2024-01-11T00:12:15.203Z,14.4
2024-01-11T00:13:31.645Z,15.8
2024-01-11T00:14:47.592Z,15
2024-01-11T00:16:03.786Z,15.2
2024-01-11T00:17:14.000Z,14.8
2024-01-11T00:17:19.980Z,14.9
2024-01-11T00:18:36.175Z,14.8
2024-01-11T00:21:08.563Z,15
2024-01-11T00:22:23.774Z,15.9
2024-01-11T00:23:40.212Z,15.3
2024-01-11T00:24:56.163Z,16
2024-01-11T00:26:12.358Z,15.3
2024-01-11T00:27:28.552Z,15.4
2024-01-11T00:28:45.001Z,15.7
2024-01-11T00:30:00.941Z,15.3
2024-01-11T00:31:17.135Z,15.4
2024-01-11T00:32:33.329Z,15.1
2024-01-11T00:33:49.769Z,15
2024-01-11T00:35:05.718Z,15.8
2024-01-11T00:36:22.163Z,15.7
2024-01-11T00:37:38.107Z,14.8
2024-01-11T00:38:53.317Z,13.9
2024-01-11T00:40:09.511Z,13.6
2024-01-11T00:41:25.948Z,14.7
2024-01-11T00:42:41.900Z,14.2
2024-01-11T00:43:58.095Z,14
2024-01-11T00:45:14.290Z,15.1
2024-01-11T00:46:29.505Z,14.4
2024-01-11T00:47:45.699Z,14.5
2024-01-11T00:49:02.137Z,13.9
2024-01-11T00:50:18.332Z,15
2024-01-11T00:51:34.530Z,13.8
2024-01-11T00:52:50.477Z,13.5
2024-01-11T00:54:06.671Z,14.1
2024-01-11T00:55:22.866Z,14.5
2024-01-11T00:56:33.000Z,14.6
2024-01-11T00:56:39.301Z,14.7
2024-01-11T00:57:49.000Z,13.5
2024-01-11T00:57:55.254Z,14.9
2024-01-11T01:01:44.082Z,15
2024-01-11T01:02:59.049Z,13.8
2024-01-11T01:04:15.488Z,14.3
2024-01-11T01:05:31.683Z,14.9
2024-01-11T01:06:47.631Z,13.8
2024-01-11T01:08:03.826Z,13.9
2024-01-11T01:09:17.000Z,14.4
2024-01-11T01:10:36.215Z,14
2024-01-11T01:11:52.410Z,14.8
2024-01-11T01:13:08.604Z,14.4
2024-01-11T01:14:25.044Z,14.2
2024-01-11T01:15:40.992Z,14.1
2024-01-11T01:16:57.438Z,14.4
2024-01-11T01:18:13.382Z,14.1
2024-01-11T01:19:28.837Z,14.7
2024-01-11T01:20:44.787Z,14.7
2024-01-11T01:22:01.225Z,15
2024-01-11T01:23:17.176Z,14.2
2024-01-11T01:24:33.370Z,15
2024-01-11T01:25:49.564Z,15.2
2024-01-11T01:27:05.998Z,14.4
2024-01-11T01:28:21.953Z,14.1
2024-01-11T01:29:32.000Z,14.5
2024-01-11T01:29:38.147Z,14.7
2024-01-11T01:30:54.342Z,14.8
2024-01-11T01:33:26.730Z,14.9
2024-01-11T01:34:43.170Z,15.1
2024-01-11T01:35:58.380Z,14.5
2024-01-11T01:37:14.330Z,14.9
2024-01-11T01:38:30.779Z,15.7
2024-01-11T01:39:46.966Z,14.8
2024-01-11T01:41:02.914Z,14.9
2024-01-11T01:42:19.354Z,15.1
2024-01-11T01:43:35.549Z,14.3
2024-01-11T01:44:51.498Z,15.3
2024-01-11T01:46:07.935Z,15.3
2024-01-11T01:47:20.000Z,14.4
2024-01-11T01:48:40.080Z,15.2
2024-01-11T01:49:56.275Z,14.5
2024-01-11T01:51:12.470Z,15
2024-01-11T01:52:27.924Z,15.1
2024-01-11T01:53:43.875Z,16.3
2024-01-11T01:55:00.316Z,14.5
2024-01-11T01:56:16.263Z,14.8
2024-01-11T01:57:32.697Z,15.1
2024-01-11T01:58:48.652Z,14.7
2024-01-11T02:00:01.000Z,14.1
2024-01-11T02:01:21.041Z,15.8
2024-01-11T02:02:37.235Z,14.8
2024-01-11T02:03:53.430Z,14.2
2024-01-11T02:05:09.624Z,14.7
2024-01-11T02:06:25.818Z,14.7
2024-01-11T02:07:42.258Z,14.8
2024-01-11T02:08:57.224Z,14.4
2024-01-11T02:10:13.418Z,15.4
2024-01-11T02:11:29.612Z,15.6
2024-01-11T02:12:42.000Z,14.6
2024-01-11T02:14:02.001Z,14.6
2024-01-11T02:15:18.196Z,14.7
2024-01-11T02:16:34.390Z,15.1
2024-01-11T02:17:50.829Z,14.6
2024-01-11T02:19:06.779Z,15
2024-01-11T02:20:23.219Z,14.9
2024-01-11T02:21:39.167Z,14.1
2024-01-11T02:22:55.618Z,14.4
2024-01-11T02:24:11.557Z,14.9
2024-01-11T02:25:20.000Z,14.2
2024-01-11T02:25:26.767Z,13.8
2024-01-11T02:26:42.962Z,14.5
2024-01-11T02:29:09.000Z,14.5
2024-01-11T02:29:15.351Z,14.1
2024-01-11T02:30:31.545Z,13.6
2024-01-11T02:32:57.000Z,14.3
2024-01-11T02:33:03.934Z,14.1
2024-01-11T02:34:20.128Z,13.9
2024-01-11T02:36:52.517Z,14.1
2024-01-11T02:38:08.952Z,14
2024-01-11T02:39:24.905Z,13.5
2024-01-11T02:40:41.100Z,13.5
2024-01-11T02:41:50.000Z,13.1
2024-01-11T02:41:56.311Z,14.2
2024-01-11T02:43:12.505Z,14.2
2024-01-11T02:45:45.136Z,14.8
2024-01-11T02:47:01.089Z,13.4
2024-01-11T02:48:17.283Z,13.7
2024-01-11T02:49:33.477Z,13.8
2024-01-11T02:50:49.920Z,13.6
2024-01-11T02:52:05.866Z,13.6
2024-01-11T02:53:22.061Z,14.1
2024-01-11T02:54:38.255Z,13.9
2024-01-11T02:55:54.702Z,14.2
2024-01-11T02:57:10.644Z,13.3
2024-01-11T02:58:26.106Z,13.9
2024-01-11T02:59:42.049Z,13.9
2024-01-11T03:00:52.000Z,14.2
2024-01-11T03:00:58.244Z,14.5
2024-01-11T03:02:14.438Z,13.7
2024-01-11T03:04:46.827Z,13.9
2024-01-11T03:06:03.021Z,14.1
2024-01-11T03:07:19.215Z,13.1
2024-01-11T03:08:35.669Z,14
2024-01-11T03:09:51.604Z,13.9
2024-01-11T03:11:07.799Z,13.4
2024-01-11T03:12:23.993Z,13.8
2024-01-11T03:13:40.440Z,14
2024-01-11T03:14:55.398Z,12.5
2024-01-11T03:16:05.000Z,13.9
2024-01-11T03:16:11.592Z,14.3
2024-01-11T03:17:27.786Z,13.5
2024-01-11T03:20:00.176Z,14.2
2024-01-11T03:21:10.000Z,13.6
2024-01-11T03:21:16.371Z,14.1
2024-01-11T03:22:26.000Z,13.7
2024-01-11T03:22:32.565Z,13.6
2024-01-11T03:26:18.000Z,13.9
2024-01-11T03:27:37.342Z,13.4
2024-01-11T03:28:53.537Z,14.1
2024-01-11T03:30:09.732Z,14.6
2024-01-11T03:31:18.000Z,14.2
2024-01-11T03:31:24.943Z,13.4
2024-01-11T03:32:41.137Z,14.1
2024-01-11T03:35:13.526Z,13.3
2024-01-11T03:36:26.000Z,13.6
2024-01-11T03:37:45.914Z,13.9
2024-01-11T03:39:02.109Z,13.4
2024-01-11T03:40:18.303Z,13.5
2024-01-11T03:41:31.000Z,13.6
2024-01-11T03:42:50.692Z,14.5
2024-01-11T03:44:06.886Z,13.3
2024-01-11T03:45:23.081Z,14.1
2024-01-11T03:46:39.275Z,14.1
2024-01-11T03:47:54.486Z,14
2024-01-11T03:49:07.000Z,13.5
2024-01-11T03:50:26.874Z,13.6
2024-01-11T03:51:43.310Z,13.8
2024-01-11T03:52:59.506Z,13.5
2024-01-11T03:54:09.000Z,13.4
2024-01-11T03:54:12.000Z,13.4
2024-01-11T03:55:31.654Z,13.4
2024-01-11T03:58:01.000Z,13.7
2024-01-11T03:59:20.481Z,13.6
2024-01-11T04:00:30.000Z,13.7
2024-01-11T04:00:36.431Z,13.9
2024-01-11T04:01:49.000Z,13.2
2024-01-11T04:04:21.000Z,14
2024-01-11T04:05:40.226Z,13.1
2024-01-11T04:06:53.000Z,13.1
2024-01-11T04:08:12.615Z,14.3
2024-01-11T04:09:28.810Z,13.8
2024-01-11T04:10:45.004Z,14.3
2024-01-11T04:12:01.447Z,13.2
2024-01-11T04:13:17.393Z,14.3
2024-01-11T04:14:33.835Z,13.3
2024-01-11T04:15:49.782Z,14.1
2024-01-11T04:17:05.976Z,13.8
2024-01-11T04:18:22.171Z,13.5
2024-01-11T04:19:35.000Z,13.7
2024-01-11T04:20:53.576Z,14
2024-01-11T04:22:09.770Z,13
2024-01-11T04:23:25.964Z,14.1
2024-01-11T04:24:39.000Z,13.4
2024-01-11T04:25:58.354Z,12.7
2024-01-11T04:27:14.549Z,14.1
2024-01-11T04:28:24.000Z,13.6
2024-01-11T04:28:30.743Z,14.1
2024-01-11T04:29:46.937Z,13.6
2024-01-11T04:32:16.000Z,13.4
2024-01-11T04:33:35.520Z,13.7
2024-01-11T04:34:51.715Z,13.1
2024-01-11T04:36:07.910Z,12.8
2024-01-11T04:37:23.121Z,14.5
2024-01-11T04:38:39.315Z,13
2024-01-11T04:39:55.759Z,13
2024-01-11T04:41:11.704Z,13.2
2024-01-11T04:42:28.146Z,12.6
2024-01-11T04:43:44.093Z,14
2024-01-11T04:45:00.287Z,14.2
2024-01-11T04:46:16.482Z,13.8
2024-01-11T04:47:26.000Z,13.5
2024-01-11T04:47:32.676Z,13.6
2024-01-11T04:48:48.870Z,13.7
2024-01-11T04:51:21.259Z,14.3
2024-01-11T04:52:37.454Z,14.3
2024-01-11T04:53:52.665Z,14.1
2024-01-11T04:55:08.859Z,13.1
2024-01-11T04:56:25.053Z,13.7
2024-01-11T04:57:41.247Z,14.5
2024-01-11T04:58:57.443Z,14
2024-01-11T05:00:13.637Z,13.7
2024-01-11T05:01:28.853Z,14.3
2024-01-11T05:02:45.048Z,13.8
2024-01-11T05:04:01.242Z,13.8
2024-01-11T05:05:17.671Z,13.8
2024-01-11T05:06:33.631Z,13.7
2024-01-11T05:07:46.000Z,13.8
2024-01-11T05:09:06.020Z,14.4
2024-01-11T05:10:19.000Z,13.6
2024-01-11T05:11:38.409Z,14.1
2024-01-11T05:12:51.000Z,14.6
2024-01-11T05:14:10.798Z,14
2024-01-11T05:15:26.992Z,13.7
2024-01-11T05:16:43.186Z,13.8
2024-01-11T05:17:58.397Z,14
2024-01-11T05:19:14.591Z,13.8
2024-01-11T05:20:30.786Z,14.2
2024-01-11T05:21:46.981Z,14.3
2024-01-11T05:23:03.176Z,13.6
2024-01-11T05:24:19.370Z,15.1
2024-01-11T05:25:32.000Z,14.1
2024-01-11T05:26:51.759Z,15.1
2024-01-11T05:28:08.198Z,14.6
2024-01-11T05:29:24.147Z,13.9
2024-01-11T05:30:40.590Z,14.3
2024-01-11T05:31:56.537Z,14.6
2024-01-11T05:33:12.732Z,14.9
2024-01-11T05:34:27.943Z,14.9
2024-01-11T05:35:44.137Z,15
2024-01-11T05:37:00.331Z,15.7
2024-01-11T05:38:16.525Z,15
2024-01-11T05:39:32.719Z,14.9
2024-01-11T05:40:49.161Z,15.4
2024-01-11T05:42:05.108Z,15
2024-01-11T05:43:21.542Z,15.5
2024-01-11T05:44:37.499Z,15.4
2024-01-11T05:45:53.936Z,15.5
2024-01-11T05:47:09.889Z,15.1
2024-01-11T05:48:26.322Z,15.4
2024-01-11T05:49:42.280Z,14.8
2024-01-11T05:50:57.492Z,15
2024-01-11T05:52:07.000Z,14.9
2024-01-11T05:52:13.688Z,15.4
2024-01-11T05:53:29.883Z,14.4
2024-01-11T05:56:02.516Z,14.4
2024-01-11T05:57:18.471Z,14.9
2024-01-11T05:58:34.666Z,14.8
2024-01-11T05:59:50.862Z,14.5
2024-01-11T06:01:07.057Z,15.3
2024-01-11T06:02:23.252Z,15.3
2024-01-11T06:03:33.000Z,15
2024-01-11T06:03:39.448Z,14.3
2024-01-11T06:04:55.644Z,14.9
2024-01-11T06:07:27.052Z,14.8
2024-01-11T06:08:43.486Z,14.5
2024-01-11T06:09:53.000Z,15.7
2024-01-11T06:09:59.444Z,14.8
2024-01-11T06:11:15.640Z,15.1
2024-01-11T06:13:41.000Z,15
2024-01-11T06:13:48.033Z,15.8
2024-01-11T06:15:04.230Z,15.9
2024-01-11T06:17:36.622Z,15.1
2024-01-11T06:18:52.818Z,14.9
2024-01-11T06:20:09.015Z,15.5
2024-01-11T06:21:25.211Z,14.6
2024-01-11T06:22:41.408Z,14.8
2024-01-11T06:23:56.620Z,14.4
2024-01-11T06:25:12.816Z,14.2
2024-01-11T06:26:29.012Z,14.3
2024-01-11T06:27:45.209Z,14.4
2024-01-11T06:28:58.000Z,13.7
2024-01-11T06:30:17.601Z,13.8
2024-01-11T06:31:34.044Z,14.4
2024-01-11T06:32:49.994Z,13.6
2024-01-11T06:34:06.190Z,14
2024-01-11T06:35:22.387Z,14.3
2024-01-11T06:36:38.832Z,14
2024-01-11T06:37:54.780Z,14.4
2024-01-11T06:39:10.976Z,13.5
2024-01-11T06:40:26.188Z,13.7
2024-01-11T06:41:42.384Z,14.5
2024-01-11T06:42:58.581Z,14
2024-01-11T06:44:14.777Z,13.9
2024-01-11T06:45:30.973Z,13.5
2024-01-11T06:46:47.421Z,14.2
2024-01-11T06:48:03.366Z,14.6
2024-01-11T06:49:19.562Z,14.7
2024-01-11T06:50:35.759Z,14.7
2024-01-11T06:51:48.000Z,14.1
2024-01-11T06:53:02.000Z,14.6
2024-01-11T06:53:08.152Z,14.8
2024-01-11T06:54:17.000Z,14.7
2024-01-11T06:54:21.000Z,14.8
2024-01-11T06:58:11.954Z,14.9
2024-01-11T06:59:28.391Z,15.2
2024-01-11T07:00:44.347Z,14.9
2024-01-11T07:02:00.543Z,16.1
2024-01-11T07:03:16.740Z,15
2024-01-11T07:04:26.000Z,15.3
2024-01-11T07:04:29.000Z,13.9
2024-01-11T07:05:49.132Z,14.6
2024-01-11T07:08:21.525Z,14.6
2024-01-11T07:09:37.721Z,15
2024-01-11T07:10:54.163Z,15.7
2024-01-11T07:12:10.355Z,15.7
2024-01-11T07:13:25.327Z,14.7
2024-01-11T07:14:41.522Z,13.9
2024-01-11T07:15:51.000Z,15.6
2024-01-11T07:15:57.719Z,14
2024-01-11T07:17:10.000Z,14.1
2024-01-11T07:19:46.308Z,14.3
2024-01-11T07:21:02.505Z,14.7
2024-01-11T07:22:18.937Z,15
2024-01-11T07:23:34.898Z,14.4
2024-01-11T07:24:51.348Z,14.4
2024-01-11T07:26:07.291Z,14.5
2024-01-11T07:27:23.487Z,14.6
2024-01-11T07:28:39.684Z,13.8
2024-01-11T07:29:54.896Z,14.4
2024-01-11T07:31:11.093Z,13.8
2024-01-11T07:32:27.289Z,14.6
2024-01-11T07:33:43.486Z,14.8
2024-01-11T07:34:59.682Z,14.4
2024-01-11T07:36:15.879Z,14.4
2024-01-11T07:37:32.325Z,15
2024-01-11T07:38:48.272Z,14.1
2024-01-11T07:40:04.468Z,14.3
2024-01-11T07:41:20.665Z,14.3
2024-01-11T07:42:33.000Z,13.5
2024-01-11T07:43:53.058Z,14.6
2024-01-11T07:45:09.255Z,14.4
2024-01-11T07:46:24.468Z,15
2024-01-11T07:47:40.903Z,14.4
2024-01-11T07:48:56.860Z,15.5
2024-01-11T07:50:13.056Z,14.2
2024-01-11T07:51:29.252Z,14.9
2024-01-11T07:52:45.449Z,14.9
2024-01-11T07:54:01.646Z,14.5
2024-01-11T07:55:17.842Z,14.5
2024-01-11T07:56:34.039Z,15.1
2024-01-11T07:57:50.235Z,14.5
2024-01-11T07:59:06.431Z,14.5
2024-01-11T08:00:22.628Z,14
2024-01-11T08:01:38.824Z,14.3
2024-01-11T08:02:54.036Z,14.6
2024-01-11T08:04:10.233Z,15.3
2024-01-11T08:05:26.430Z,15.2
2024-01-11T08:06:42.626Z,14.9
2024-01-11T08:07:58.823Z,15
2024-01-11T08:09:15.019Z,14.7
2024-01-11T08:10:31.215Z,14.6
2024-01-11T08:11:47.412Z,14.6
2024-01-11T08:13:00.000Z,15.8
2024-01-11T08:14:19.805Z,14.5
2024-01-11T08:15:36.237Z,15.4
2024-01-11T08:16:52.198Z,15.1
2024-01-11T08:18:08.394Z,14.8
2024-01-11T08:19:23.607Z,14.7
2024-01-11T08:20:39.802Z,14.2
2024-01-11T08:21:55.999Z,15.2
2024-01-11T08:23:12.195Z,15
2024-01-11T08:24:28.391Z,14
2024-01-11T08:25:41.000Z,14.4
2024-01-11T08:27:00.784Z,15.2
2024-01-11T08:28:17.220Z,14.7
2024-01-11T08:29:33.177Z,14.4
2024-01-11T08:30:49.373Z,15
2024-01-11T08:32:05.570Z,15
2024-01-11T08:33:14.000Z,14.7
2024-01-11T08:33:21.766Z,15.1
2024-01-11T08:34:37.962Z,15.2
2024-01-11T08:37:09.372Z,14.4
2024-01-11T08:38:22.000Z,14.7
2024-01-11T08:39:41.764Z,14.3
2024-01-11T08:40:57.960Z,14.9
2024-01-11T08:42:14.157Z,14.5
2024-01-11T08:43:30.353Z,14.6
2024-01-11T08:44:46.550Z,14.5
2024-01-11T08:46:02.746Z,14.9
2024-01-11T08:47:18.942Z,14.6
2024-01-11T08:48:35.138Z,15
2024-01-11T08:49:51.335Z,15.1
2024-01-11T08:51:00.000Z,14.7
2024-01-11T08:51:07.531Z,15.2
2024-01-11T08:52:22.744Z,13.8
2024-01-11T08:54:55.136Z,14.8
2024-01-11T08:56:05.000Z,15.4
2024-01-11T08:56:11.332Z,15.2
2024-01-11T08:57:27.528Z,14.7
2024-01-11T08:59:59.921Z,14.1
2024-01-11T09:01:09.000Z,14.3
2024-01-11T09:01:13.000Z,15.5
2024-01-11T09:02:32.313Z,14.8
2024-01-11T09:05:04.706Z,14.3
2024-01-11T09:06:20.902Z,14.5
2024-01-11T09:07:37.099Z,13.8
2024-01-11T09:08:52.311Z,14.8
2024-01-11T09:10:08.507Z,14.6
2024-01-11T09:11:24.703Z,14
2024-01-11T09:12:40.900Z,14.9
2024-01-11T09:13:57.096Z,13.8
2024-01-11T09:15:13.293Z,14.2
2024-01-11T09:16:28.510Z,13.9
2024-01-11T09:17:44.707Z,14.2
2024-01-11T09:19:00.903Z,15.2
2024-01-11T09:20:17.336Z,13.8
2024-01-11T09:21:33.296Z,16
2024-01-11T09:22:49.492Z,14.5
2024-01-11T09:24:05.688Z,14.4
2024-01-11T09:25:21.885Z,14.8
2024-01-11T09:26:31.000Z,14.7
2024-01-11T09:26:35.000Z,14.1
2024-01-11T09:27:54.278Z,15.6
2024-01-11T09:30:26.671Z,15.1
2024-01-11T09:31:42.867Z,14.9
2024-01-11T09:32:58.080Z,15
2024-01-11T09:34:14.276Z,14.2
2024-01-11T09:35:30.472Z,14.6
2024-01-11T09:36:46.668Z,15.5
2024-01-11T09:38:02.865Z,15.1
2024-01-11T09:39:19.061Z,15
2024-01-11T09:40:35.258Z,14.2
2024-01-11T09:41:45.000Z,14.4
2024-01-11T09:41:51.454Z,15.2
2024-01-11T09:43:07.651Z,15
2024-01-11T09:44:17.000Z,14.9
2024-01-11T09:45:40.044Z,14.8
2024-01-11T09:48:12.437Z,14.4
2024-01-11T09:49:24.000Z,15.4
2024-01-11T09:50:43.846Z,15
2024-01-11T09:52:00.043Z,15
2024-01-11T09:53:16.239Z,15.5
2024-01-11T09:54:32.436Z,14.6
2024-01-11T09:55:48.632Z,14.9
2024-01-11T09:57:04.829Z,14.7
2024-01-11T09:58:21.025Z,14.6
2024-01-11T09:59:37.222Z,15.6
2024-01-11T10:00:53.419Z,15.3
2024-01-11T10:02:06.000Z,15.2
2024-01-11T10:03:25.812Z,14.6
2024-01-11T10:04:42.008Z,15
2024-01-11T10:05:57.220Z,15.3
2024-01-11T10:07:07.000Z,15.9
2024-01-11T10:07:13.416Z,15.3
2024-01-11T10:08:29.613Z,15.2
2024-01-11T10:11:02.007Z,15.4
2024-01-11T10:12:18.204Z,15.6
2024-01-11T10:13:34.401Z,16.4
2024-01-11T10:14:50.597Z,15.6
2024-01-11T10:16:06.794Z,15.4
2024-01-11T10:17:16.000Z,15.9
2024-01-11T10:17:22.990Z,15.5
2024-01-11T10:18:39.187Z,15.6
2024-01-11T10:21:11.580Z,15.9
2024-01-11T10:22:26.792Z,15.7
2024-01-11T10:23:42.989Z,15.5
2024-01-11T10:24:52.000Z,15
2024-01-11T10:24:59.185Z,15.3
2024-01-11T10:26:15.382Z,15.1
2024-01-11T10:28:47.775Z,15.4
2024-01-11T10:30:03.971Z,15.7
2024-01-11T10:31:20.168Z,15.4
2024-01-11T10:32:36.364Z,15.1
2024-01-11T10:33:52.561Z,14.8
2024-01-11T10:35:08.757Z,15.6
2024-01-11T10:36:24.954Z,16.1
2024-01-11T10:37:41.150Z,14.9
2024-01-11T10:38:56.363Z,15.6
2024-01-11T10:40:12.560Z,16.5
2024-01-11T10:41:20.000Z,15.4
2024-01-11T10:41:28.757Z,15.3
2024-01-11T10:42:43.980Z,14.9
2024-01-11T10:45:14.417Z,15.4
2024-01-11T10:46:30.615Z,16
2024-01-11T10:47:46.811Z,15.6
2024-01-11T10:49:03.008Z,16.8
2024-01-11T10:50:19.205Z,15.6
2024-01-11T10:51:35.402Z,16.2
2024-01-11T10:52:51.598Z,15.5
2024-01-11T10:54:07.796Z,16.6
2024-01-11T10:55:23.993Z,16.6
2024-01-11T10:56:33.000Z,16.4
2024-01-11T10:56:40.191Z,15.6
2024-01-11T10:57:50.000Z,16.3
2024-01-11T10:57:56.387Z,16.7
2024-01-11T11:01:43.993Z,16.2
2024-01-11T11:03:00.190Z,16.1
2024-01-11T11:04:16.387Z,16.2
2024-01-11T11:05:32.584Z,17
2024-01-11T11:06:48.781Z,16.5
2024-01-11T11:08:04.978Z,16
2024-01-11T11:09:21.175Z,16.7
2024-01-11T11:10:37.371Z,16
2024-01-11T11:11:47.000Z,16.3
2024-01-11T11:11:53.568Z,17
2024-01-11T11:13:09.765Z,16.1
2024-01-11T11:15:42.159Z,16.1
2024-01-11T11:16:58.356Z,16.5
2024-01-11T11:18:13.569Z,15.6
2024-01-11T11:19:29.766Z,16.3
2024-01-11T11:20:45.963Z,16.7
2024-01-11T11:22:02.161Z,16.6
2024-01-11T11:23:18.358Z,15.9
2024-01-11T11:24:34.557Z,15.6
2024-01-11T11:25:50.754Z,16
2024-01-11T11:27:06.952Z,16.3
2024-01-11T11:28:16.000Z,16.5
2024-01-11T11:28:23.149Z,16.8
2024-01-11T11:29:39.346Z,16.7
2024-01-11T11:32:11.741Z,16.6
2024-01-11T11:33:27.938Z,16.4
2024-01-11T11:34:43.151Z,16.1
2024-01-11T11:35:59.348Z,16.5
2024-01-11T11:37:15.546Z,16
2024-01-11T11:38:31.743Z,17.8
2024-01-11T11:39:47.940Z,16.4
2024-01-11T11:41:04.137Z,16.8
2024-01-11T11:43:30.000Z,17.1
2024-01-11T11:43:36.532Z,16.2
2024-01-11T11:44:52.729Z,16.7
2024-01-11T11:47:25.124Z,17.1
2024-01-11T11:48:41.321Z,16.9
2024-01-11T11:51:13.715Z,17.2
2024-01-11T11:53:45.126Z,17.1
2024-01-11T11:55:01.324Z,17.3
2024-01-11T11:56:16.548Z,17.6
2024-01-11T11:58:47.959Z,18.5
2024-01-11T12:00:04.156Z,17.9
2024-01-11T12:01:20.353Z,18.4
2024-01-11T12:02:36.551Z,18.8
2024-01-11T12:03:52.748Z,18.2
2024-01-11T12:05:08.945Z,19.7
2024-01-11T12:06:18.000Z,18.6
2024-01-11T12:06:25.142Z,18.6
2024-01-11T12:07:41.340Z,18.8
2024-01-11T12:10:13.735Z,18.6
2024-01-11T12:11:22.000Z,18.4
2024-01-11T12:11:29.931Z,19.2
2024-01-11T12:12:46.129Z,18.9
2024-01-11T12:13:55.000Z,19.7
2024-01-11T12:15:17.540Z,19.7
2024-01-11T12:16:27.000Z,19.4
2024-01-11T12:17:49.934Z,19.1
2024-01-11T12:18:59.000Z,18.8
2024-01-11T12:20:22.328Z,18.9
2024-01-11T12:21:30.000Z,18.8
2024-01-11T12:22:53.749Z,19.2
2024-01-11T12:24:02.000Z,19.7
2024-01-11T12:25:25.159Z,19.2
2024-01-11T12:27:57.553Z,19
2024-01-11T12:29:13.749Z,18.7
2024-01-11T12:30:23.000Z,19.3
2024-01-11T12:30:29.947Z,19
2024-01-11T12:31:46.143Z,19.5
2024-01-11T12:34:18.538Z,18.3
2024-01-11T12:35:34.735Z,19.6
2024-01-11T12:36:44.000Z,18.8
2024-01-11T12:36:50.932Z,18.8
2024-01-11T12:38:07.130Z,18.9
2024-01-11T12:39:16.000Z,19.2
2024-01-11T12:40:38.540Z,18.7
2024-01-11T12:43:10.933Z,19.4
2024-01-11T12:44:27.129Z,18.6
2024-01-11T12:45:37.000Z,19.9
2024-01-11T12:45:43.327Z,19
2024-01-11T12:46:53.000Z,19.6
2024-01-11T12:46:59.523Z,18.9
2024-01-11T12:49:25.000Z,20.3
2024-01-11T12:50:48.113Z,19.1
2024-01-11T12:53:20.507Z,19.4
2024-01-11T12:54:36.704Z,19.8
2024-01-11T12:55:52.902Z,19.3
2024-01-11T12:57:08.113Z,19.8
2024-01-11T12:58:24.310Z,19.5
2024-01-11T12:59:40.507Z,19.7
2024-01-11T13:02:12.900Z,19.7
2024-01-11T13:03:29.096Z,19.5
2024-01-11T13:04:39.000Z,18.6
2024-01-11T13:04:45.292Z,18.9
2024-01-11T13:06:01.490Z,19.5
2024-01-11T13:08:33.884Z,18.8
2024-01-11T13:09:50.080Z,18.4
2024-01-11T13:11:06.278Z,18.6
2024-01-11T13:12:22.474Z,18.1
2024-01-11T13:13:37.686Z,17.5
2024-01-11T13:14:47.000Z,18.6
2024-01-11T13:14:53.882Z,18.5
2024-01-11T13:16:10.080Z,18.5
2024-01-11T13:17:19.000Z,18
2024-01-11T13:18:42.472Z,19
2024-01-11T13:21:14.865Z,18.8
2024-01-11T13:22:24.000Z,18.7
2024-01-11T13:22:31.061Z,18.5
2024-01-11T13:23:47.258Z,18.7
2024-01-11T13:26:19.651Z,18.6
2024-01-11T13:27:35.847Z,18.3
2024-01-11T13:28:52.043Z,18.7
2024-01-11T13:30:07.256Z,19.6
2024-01-11T13:31:22.474Z,18.5
2024-01-11T13:32:38.671Z,18.2
2024-01-11T13:33:54.868Z,18.9
2024-01-11T13:35:11.063Z,18.5
2024-01-11T13:36:27.260Z,18.4
2024-01-11T13:37:43.456Z,18.6
2024-01-11T13:38:53.000Z,18.2
2024-01-11T13:38:59.652Z,18.2
2024-01-11T13:40:15.848Z,18
2024-01-11T13:42:41.000Z,18.2
2024-01-11T13:42:48.240Z,18.3
2024-01-11T13:44:04.437Z,18
2024-01-11T13:46:36.829Z,18.4
2024-01-11T13:47:52.041Z,18.4
2024-01-11T13:49:08.238Z,17.7
2024-01-11T13:50:18.000Z,15.7
2024-01-11T13:50:24.434Z,15.8
2024-01-11T13:51:40.632Z,17.2
2024-01-11T13:54:13.024Z,16.3
2024-01-11T13:55:29.219Z,16.6
2024-01-11T13:56:45.417Z,16.9
2024-01-11T13:58:01.613Z,17.3
2024-01-11T13:59:17.810Z,16.7
2024-01-11T14:00:34.006Z,17.6
2024-01-11T14:01:50.202Z,18
2024-01-11T14:03:06.397Z,17.8
2024-01-11T14:04:21.611Z,16.8
2024-01-11T14:05:37.807Z,18.2
2024-01-11T14:06:54.003Z,17.9
2024-01-11T14:08:03.000Z,18.1
2024-01-11T14:08:10.199Z,17.5
2024-01-11T14:09:26.395Z,17.9
2024-01-11T14:11:58.786Z,18.4
2024-01-11T14:13:14.981Z,18.6
2024-01-11T14:14:31.179Z,18.4
2024-01-11T14:15:47.375Z,18.7
2024-01-11T14:17:03.572Z,18.5
2024-01-11T14:18:19.768Z,19.7
2024-01-11T14:19:35.965Z,19.3
2024-01-11T14:20:44.000Z,18
2024-01-11T14:20:51.177Z,19.3
2024-01-11T14:22:07.375Z,18.6
2024-01-11T14:24:39.767Z,19.2
2024-01-11T14:25:55.964Z,19.4
2024-01-11T14:27:12.161Z,19.3
2024-01-11T14:28:28.357Z,19.4
2024-01-11T14:29:44.555Z,19.4
2024-01-11T14:31:00.751Z,19.5
2024-01-11T14:32:16.949Z,19.6
2024-01-11T14:33:26.000Z,20.1
2024-01-11T14:33:33.144Z,19.9
2024-01-11T14:34:49.342Z,19.7
2024-01-11T14:37:20.750Z,19.7
2024-01-11T14:38:30.000Z,19.6
2024-01-11T14:38:36.947Z,20.1
2024-01-11T14:39:53.145Z,20.8
2024-01-11T14:42:25.539Z,21.1
2024-01-11T14:43:35.000Z,20.1
2024-01-11T14:43:41.735Z,20.6
2024-01-11T14:44:57.932Z,21.2
2024-01-11T14:47:23.000Z,20.8
2024-01-11T14:47:30.326Z,19.5
2024-01-11T14:48:46.522Z,20.6
2024-01-11T14:51:18.915Z,22.2
2024-01-11T14:52:35.113Z,20.9
2024-01-11T14:53:50.325Z,21.4
2024-01-11T14:55:06.523Z,20.8
2024-01-11T14:56:22.720Z,21.5
2024-01-11T14:57:38.918Z,20.8
2024-01-11T14:58:55.114Z,20.3
2024-01-11T15:00:11.311Z,21.7
2024-01-11T15:01:27.508Z,21.2
2024-01-11T15:02:43.706Z,21.1
2024-01-11T15:03:59.902Z,21.5
2024-01-11T15:05:16.100Z,21
2024-01-11T15:06:32.296Z,20.9
2024-01-11T15:07:48.493Z,21.3
2024-01-11T15:09:04.689Z,21
2024-01-11T15:10:19.902Z,20.9
2024-01-11T15:11:36.099Z,21.1
2024-01-11T15:12:52.297Z,20.6
2024-01-11T15:14:08.493Z,21.8
2024-01-11T15:15:24.687Z,21.4
2024-01-11T15:16:40.882Z,22.5
2024-01-11T15:17:57.076Z,21.2
2024-01-11T15:19:13.271Z,21.3
2024-01-11T15:20:29.465Z,21.7
2024-01-11T15:21:45.660Z,22.4
2024-01-11T15:23:01.855Z,21.3
2024-01-11T15:24:18.050Z,21.4
2024-01-11T15:25:34.245Z,21.7
2024-01-11T15:26:49.456Z,22
2024-01-11T15:28:05.651Z,23.3
2024-01-11T15:29:21.847Z,23.1
2024-01-11T15:30:38.042Z,22.6
2024-01-11T15:31:54.236Z,22.4
2024-01-11T15:33:10.431Z,22
2024-01-11T15:34:26.626Z,22.6
2024-01-11T15:35:42.822Z,22
2024-01-11T15:36:59.017Z,22.1
2024-01-11T15:38:15.212Z,22.1
2024-01-11T15:39:31.408Z,22.2
2024-01-11T15:40:47.602Z,21.2
2024-01-11T15:42:03.798Z,21.5
2024-01-11T15:43:19.010Z,23
2024-01-11T15:44:35.204Z,22.3
2024-01-11T15:45:51.399Z,22.5
2024-01-11T15:47:07.594Z,21
2024-01-11T15:48:23.789Z,21.2
2024-01-11T15:49:39.985Z,22.1
2024-01-11T15:50:56.180Z,22.3
2024-01-11T15:52:12.375Z,21.7
2024-01-11T15:53:28.570Z,23.2
2024-01-11T15:54:44.765Z,22.6
2024-01-11T15:56:00.960Z,22.9
2024-01-11T15:57:14.000Z,22.7
2024-01-11T15:58:33.349Z,21.5
2024-01-11T15:59:48.559Z,22.2
2024-01-11T16:01:04.754Z,22.4
2024-01-11T16:02:20.949Z,22.8
2024-01-11T16:03:37.143Z,22.1
2024-01-11T16:04:53.338Z,21.8
2024-01-11T16:06:09.533Z,22.3
2024-01-11T16:07:25.728Z,23.9
2024-01-11T16:08:41.924Z,23.1
2024-01-11T16:09:58.119Z,22.9
2024-01-11T16:11:14.313Z,23
2024-01-11T16:12:30.508Z,22.9
2024-01-11T16:13:46.703Z,22.2
2024-01-11T16:15:02.898Z,23.2
2024-01-11T16:16:18.108Z,23.5
2024-01-11T16:17:34.302Z,22.6
2024-01-11T16:18:50.497Z,23
2024-01-11T16:20:06.691Z,22.6
2024-01-11T16:21:22.886Z,23.3
2024-01-11T16:22:39.080Z,22.7
2024-01-11T16:23:55.275Z,22.7
2024-01-11T16:25:11.471Z,23
2024-01-11T16:26:27.665Z,21.8
2024-01-11T16:27:43.861Z,23
2024-01-11T16:29:00.056Z,23.6
2024-01-11T16:30:16.250Z,23.7
2024-01-11T16:31:32.445Z,22.3
2024-01-11T16:32:47.656Z,23
2024-01-11T16:34:03.851Z,22.3
2024-01-11T16:35:20.046Z,21.7
2024-01-11T16:36:36.241Z,22
2024-01-11T16:37:52.436Z,22.8
2024-01-11T16:39:08.632Z,21.3
2024-01-11T16:40:24.827Z,22.3
2024-01-11T16:41:41.023Z,21.9
2024-01-11T16:42:57.218Z,22.2
2024-01-11T16:44:13.412Z,22.5
2024-01-11T16:45:29.607Z,22
2024-01-11T16:46:45.802Z,23.1
2024-01-11T16:48:01.998Z,22
2024-01-11T16:49:17.209Z,21.4
2024-01-11T16:50:33.404Z,22.7
2024-01-11T16:51:49.599Z,22
2024-01-11T16:53:05.794Z,21.4
2024-01-11T16:54:21.989Z,22.3
2024-01-11T16:55:38.184Z,22.3
2024-01-11T16:56:54.379Z,22
2024-01-11T16:58:10.574Z,22.3
2024-01-11T16:59:26.769Z,22
2024-01-11T17:00:42.965Z,22.7
2024-01-11T17:01:59.160Z,21.1
2024-01-11T17:03:15.355Z,21.3
2024-01-11T17:04:31.550Z,20.6
2024-01-11T17:05:46.761Z,21.5
2024-01-11T17:07:02.958Z,22